createdAt,value
2023-02-07T00:01:22.798Z,28.55
2023-02-07T00:03:51.082Z,26.52
2023-02-07T00:06:22.193Z,29.10
2023-02-07T00:08:50.021Z,24.60
2023-02-07T00:11:20.058Z,29.10
2023-02-07T00:13:50.088Z,29.70
2023-02-07T00:16:17.980Z,27.75
2023-02-07T00:18:45.789Z,27.45
2023-02-07T00:21:16.466Z,27.87
2023-02-07T00:23:45.005Z,27.17
2023-02-07T00:26:14.087Z,28.75
2023-02-07T00:28:41.998Z,30.12
2023-02-07T00:31:10.988Z,27.92
2023-02-07T00:33:39.455Z,28.62
2023-02-07T00:36:09.929Z,28.42
2023-02-07T00:38:37.927Z,26.73
2023-02-07T00:41:05.540Z,25.75
2023-02-07T00:43:33.363Z,27.00
2023-02-07T00:46:03.175Z,24.23
2023-02-07T00:48:31.532Z,26.27
2023-02-07T00:50:59.442Z,29.58
2023-02-07T00:53:29.197Z,26.45
2023-02-07T00:55:56.781Z,35.42
2023-02-07T00:58:24.228Z,27.50
2023-02-07T01:00:52.053Z,28.80
2023-02-07T01:03:19.801Z,29.15
2023-02-07T01:05:47.526Z,37.20
2023-02-07T01:08:15.444Z,36.97
2023-02-07T01:10:44.675Z,32.35
2023-02-07T01:13:13.931Z,33.58
2023-02-07T01:15:43.998Z,31.52
2023-02-07T01:18:11.549Z,28.67
2023-02-07T01:20:40.005Z,28.38
2023-02-07T01:23:07.813Z,31.92
2023-02-07T01:25:35.326Z,29.42
2023-02-07T01:28:04.647Z,34.33
2023-02-07T01:30:32.483Z,48.85
2023-02-07T01:33:00.358Z,44.20
2023-02-07T01:35:28.865Z,43.00
2023-02-07T01:37:58.395Z,42.58
2023-02-07T01:40:27.153Z,44.28
2023-02-07T01:42:54.618Z,35.75
2023-02-07T01:45:30.547Z,34.15
2023-02-07T01:48:07.748Z,30.02
2023-02-07T01:50:35.866Z,29.48
2023-02-07T01:53:05.618Z,30.42
2023-02-07T01:55:36.149Z,29.10
2023-02-07T01:58:06.278Z,25.88
2023-02-07T02:00:34.633Z,29.75
2023-02-07T02:03:02.587Z,30.52
2023-02-07T02:05:31.371Z,28.52
2023-02-07T02:07:58.942Z,23.80
2023-02-07T02:10:56.596Z,26.95
2023-02-07T02:13:33.041Z,27.37
2023-02-07T02:16:04.221Z,26.67
2023-02-07T02:18:37.596Z,23.30
2023-02-07T02:21:27.993Z,27.02
2023-02-07T02:24:31.407Z,22.67
2023-02-07T02:27:14.784Z,24.58
2023-02-07T02:30:14.470Z,28.90
2023-02-07T02:32:44.766Z,26.15
2023-02-07T02:35:31.107Z,25.20
2023-02-07T02:38:39.160Z,28.48
2023-02-07T02:41:13.921Z,29.33
2023-02-07T02:43:47.273Z,25.67
2023-02-07T02:46:20.354Z,31.20
2023-02-07T02:48:49.826Z,25.15
2023-02-07T02:51:17.366Z,23.38
2023-02-07T02:54:27.490Z,26.58
2023-02-07T02:57:17.998Z,22.50
2023-02-07T02:59:51.530Z,24.35
2023-02-07T03:02:19.150Z,27.25
2023-02-07T03:05:08.509Z,28.30
2023-02-07T03:07:57.160Z,25.98
2023-02-07T03:10:33.125Z,27.15
2023-02-07T03:13:15.349Z,27.80
2023-02-07T03:15:55.049Z,26.35
2023-02-07T03:18:31.658Z,28.75
2023-02-07T03:21:22.406Z,27.48
2023-02-07T03:23:52.250Z,24.52
2023-02-07T03:26:21.535Z,25.27
2023-02-07T03:28:55.142Z,26.08
2023-02-07T03:31:24.629Z,24.95
2023-02-07T03:33:56.481Z,26.48
2023-02-07T03:36:29.015Z,64.20
2023-02-07T03:38:56.904Z,199.48
2023-02-07T03:41:31.430Z,140.85
2023-02-07T03:44:00.347Z,127.93
2023-02-07T03:46:34.335Z,113.32
2023-02-07T03:49:02.390Z,97.85
2023-02-07T03:51:29.791Z,59.10
2023-02-07T03:53:57.166Z,52.67
2023-02-07T03:56:24.927Z,45.55
2023-02-07T03:58:52.366Z,43.20
2023-02-07T04:01:19.882Z,37.15
2023-02-07T04:03:47.670Z,40.65
2023-02-07T04:06:15.223Z,33.47
2023-02-07T04:08:42.905Z,32.67
2023-02-07T04:11:10.651Z,30.10
2023-02-07T04:13:38.338Z,29.80
2023-02-07T04:16:06.618Z,30.30
2023-02-07T04:18:34.311Z,33.47
2023-02-07T04:21:06.134Z,28.08
2023-02-07T04:23:34.602Z,33.65
2023-02-07T04:26:02.171Z,28.35
2023-02-07T04:28:29.932Z,32.85
2023-02-07T04:30:57.730Z,33.80
2023-02-07T04:33:25.234Z,31.65
2023-02-07T04:35:57.253Z,30.75
2023-02-07T04:40:52.453Z,26.77
2023-02-07T04:43:19.891Z,28.20
2023-02-07T04:45:48.133Z,29.90
2023-02-07T04:48:15.524Z,36.97
2023-02-07T04:50:43.349Z,33.67
2023-02-07T04:53:11.015Z,36.17
2023-02-07T04:55:38.811Z,34.63
2023-02-07T04:58:07.360Z,31.50
2023-02-07T05:00:35.089Z,31.70
2023-02-07T05:03:02.492Z,29.23
2023-02-07T05:05:29.862Z,27.23
2023-02-07T05:07:57.618Z,28.10
2023-02-07T05:10:25.177Z,28.15
2023-02-07T05:12:52.549Z,27.45
2023-02-07T05:15:20.217Z,26.30
2023-02-07T05:17:47.719Z,26.75
2023-02-07T05:20:15.183Z,28.15
2023-02-07T05:22:42.844Z,29.35
2023-02-07T05:25:10.258Z,24.48
2023-02-07T05:27:37.722Z,22.73
2023-02-07T05:30:06.376Z,28.23
2023-02-07T05:32:52.350Z,26.27
2023-02-07T05:35:20.684Z,26.50
2023-02-07T05:37:48.094Z,28.30
2023-02-07T05:40:15.598Z,28.52
2023-02-07T05:42:43.285Z,33.72
2023-02-07T05:45:11.087Z,30.17
2023-02-07T05:47:38.514Z,27.87
2023-02-07T05:50:06.902Z,36.80
2023-02-07T05:52:35.786Z,32.13
2023-02-07T05:55:04.373Z,36.75
2023-02-07T05:57:32.318Z,33.88
2023-02-07T05:59:59.946Z,29.33
2023-02-07T06:02:27.493Z,29.50
2023-02-07T06:04:55.258Z,32.38
2023-02-07T06:07:22.736Z,28.85
2023-02-07T06:09:50.717Z,31.25
2023-02-07T06:12:18.412Z,36.25
2023-02-07T06:14:45.853Z,37.83
2023-02-07T06:17:13.233Z,36.70
2023-02-07T06:19:40.909Z,32.72
2023-02-07T06:22:08.331Z,31.37
2023-02-07T06:24:35.715Z,33.55
2023-02-07T06:27:03.518Z,34.30
2023-02-07T06:29:31.014Z,32.15
2023-02-07T06:31:58.459Z,30.12
2023-02-07T06:34:26.207Z,38.30
2023-02-07T06:36:53.655Z,34.42
2023-02-07T06:39:21.172Z,39.53
2023-02-07T06:41:48.826Z,41.78
2023-02-07T06:44:16.220Z,52.88
2023-02-07T06:46:43.670Z,53.10
2023-02-07T06:49:11.608Z,54.55
2023-02-07T06:51:39.029Z,51.17
2023-02-07T06:54:09.878Z,41.88
2023-02-07T06:56:37.972Z,38.88
2023-02-07T06:59:05.367Z,34.65
2023-02-07T07:01:32.867Z,42.83
2023-02-07T07:04:00.591Z,40.25
2023-02-07T07:06:28.053Z,32.80
2023-02-07T07:08:55.614Z,29.63
2023-02-07T07:11:23.583Z,33.88
2023-02-07T07:13:51.034Z,36.10
2023-02-07T07:16:18.574Z,31.45
2023-02-07T07:18:46.398Z,32.50
2023-02-07T07:21:13.807Z,33.38
2023-02-07T07:23:41.248Z,35.67
2023-02-07T07:26:08.994Z,42.72
2023-02-07T07:28:36.426Z,44.63
2023-02-07T07:31:05.872Z,40.35
2023-02-07T07:33:34.114Z,36.65
2023-02-07T07:36:02.456Z,36.28
2023-02-07T07:38:30.424Z,33.88
2023-02-07T07:40:58.601Z,40.45
2023-02-07T07:43:26.528Z,31.62
2023-02-07T07:45:56.412Z,29.77
2023-02-07T07:48:24.774Z,34.60
2023-02-07T07:50:52.528Z,34.53
2023-02-07T07:53:20.213Z,35.88
2023-02-07T07:55:52.808Z,34.22
2023-02-07T07:58:21.389Z,33.38
2023-02-07T08:00:49.161Z,31.98
2023-02-07T08:03:19.105Z,32.35
2023-02-07T08:05:47.227Z,33.85
2023-02-07T08:08:15.261Z,30.90
2023-02-07T08:10:42.982Z,31.85
2023-02-07T08:13:11.071Z,28.75
2023-02-07T08:15:39.323Z,31.15
2023-02-07T08:18:07.169Z,29.70
2023-02-07T08:20:35.706Z,32.92
2023-02-07T08:23:03.296Z,29.45
2023-02-07T08:25:31.008Z,33.28
2023-02-07T08:27:58.452Z,33.35
2023-02-07T08:30:26.720Z,31.85
2023-02-07T08:32:55.611Z,29.55
2023-02-07T08:35:23.036Z,28.87
2023-02-07T08:37:50.916Z,32.88
2023-02-07T08:40:19.183Z,29.63
2023-02-07T08:42:46.606Z,30.70
2023-02-07T08:45:15.976Z,33.67
2023-02-07T08:47:47.246Z,30.98
2023-02-07T08:50:15.351Z,27.00
2023-02-07T08:52:42.875Z,25.52
2023-02-07T08:55:11.389Z,26.70
2023-02-07T08:57:38.929Z,29.75
2023-02-07T09:00:07.248Z,29.65
2023-02-07T09:02:35.096Z,34.33
2023-02-07T09:05:03.213Z,31.87
2023-02-07T09:07:31.734Z,30.00
2023-02-07T09:09:59.584Z,33.08
2023-02-07T09:12:27.124Z,30.27
2023-02-07T09:14:54.486Z,28.12
2023-02-07T09:17:22.164Z,31.37
2023-02-07T09:19:49.528Z,28.75
2023-02-07T09:22:16.901Z,28.45
2023-02-07T09:24:45.104Z,26.73
2023-02-07T09:27:15.313Z,29.10
2023-02-07T09:29:42.970Z,27.60
2023-02-07T09:32:10.679Z,28.02
2023-02-07T09:34:38.459Z,27.77
2023-02-07T09:37:06.586Z,29.20
2023-02-07T09:39:36.735Z,27.42
2023-02-07T09:42:33.862Z,26.50
2023-02-07T09:45:10.491Z,24.65
2023-02-07T09:47:39.431Z,27.08
2023-02-07T09:50:19.706Z,25.35
2023-02-07T09:52:56.262Z,31.15
2023-02-07T09:55:27.100Z,23.83
2023-02-07T09:58:02.308Z,26.58
2023-02-07T10:00:31.979Z,25.15
2023-02-07T10:03:17.038Z,26.40
2023-02-07T10:05:49.374Z,20.52
2023-02-07T10:08:18.754Z,27.45
2023-02-07T10:10:49.169Z,27.48
2023-02-07T10:13:28.764Z,26.70
2023-02-07T10:16:08.266Z,23.98
2023-02-07T10:18:53.571Z,22.10
2023-02-07T10:21:31.134Z,21.77
2023-02-07T10:24:11.270Z,24.87
2023-02-07T10:26:54.910Z,22.15
2023-02-07T10:29:25.502Z,20.62
2023-02-07T10:31:55.771Z,22.05
2023-02-07T10:34:26.034Z,23.98
2023-02-07T10:36:53.773Z,24.75
2023-02-07T10:39:29.564Z,19.35
2023-02-07T10:41:57.737Z,19.90
2023-02-07T10:44:28.567Z,19.48
2023-02-07T10:47:01.549Z,19.27
2023-02-07T10:49:32.347Z,20.27
2023-02-07T10:52:12.030Z,21.73
2023-02-07T10:54:52.916Z,22.65
2023-02-07T10:57:21.716Z,24.05
2023-02-07T10:59:50.611Z,21.35
2023-02-07T11:02:33.271Z,23.40
2023-02-07T11:05:02.221Z,26.12
2023-02-07T11:07:39.444Z,23.62
2023-02-07T11:10:16.543Z,27.87
2023-02-07T11:12:46.558Z,25.15
2023-02-07T11:15:17.348Z,22.27
2023-02-07T11:17:53.571Z,23.83
2023-02-07T11:20:30.257Z,25.85
2023-02-07T11:22:58.217Z,23.87
2023-02-07T11:25:46.181Z,24.63
2023-02-07T11:28:26.025Z,24.12
2023-02-07T11:31:03.724Z,23.25
2023-02-07T11:33:33.474Z,24.45
2023-02-07T11:36:11.867Z,22.13
2023-02-07T11:38:50.838Z,22.25
2023-02-07T11:41:28.071Z,25.00
2023-02-07T11:44:02.320Z,24.48
2023-02-07T11:46:42.537Z,22.92
2023-02-07T11:49:25.492Z,25.83
2023-02-07T11:51:55.790Z,24.50
2023-02-07T11:54:23.844Z,24.17
2023-02-07T11:56:56.185Z,24.15
2023-02-07T11:59:25.187Z,22.90
2023-02-07T12:01:55.816Z,22.70
2023-02-07T12:04:28.950Z,22.65
2023-02-07T12:07:01.306Z,21.77
2023-02-07T12:09:41.081Z,28.40
2023-02-07T12:12:20.465Z,25.02
2023-02-07T12:14:58.217Z,24.67
2023-02-07T12:17:36.037Z,23.35
2023-02-07T12:20:09.861Z,22.67
2023-02-07T12:22:58.777Z,21.77
2023-02-07T12:25:37.282Z,23.00
2023-02-07T12:28:15.368Z,20.67
2023-02-07T12:30:45.940Z,22.40
2023-02-07T12:33:21.421Z,21.10
2023-02-07T12:36:03.037Z,25.98
2023-02-07T12:38:44.567Z,22.23
2023-02-07T12:41:24.288Z,29.58
2023-02-07T12:44:03.659Z,26.55
2023-02-07T12:46:53.627Z,24.42
2023-02-07T12:49:57.840Z,20.58
2023-02-07T12:52:31.571Z,19.52
2023-02-07T12:55:12.550Z,21.35
2023-02-07T12:57:53.438Z,23.02
2023-02-07T13:00:33.248Z,24.65
2023-02-07T13:03:38.827Z,19.33
2023-02-07T13:06:30.690Z,22.15
2023-02-07T13:09:37.592Z,22.77
2023-02-07T13:12:14.538Z,22.37
2023-02-07T13:15:08.628Z,22.73
2023-02-07T13:17:55.007Z,21.75
2023-02-07T13:20:28.354Z,18.95
2023-02-07T13:23:00.370Z,21.48
2023-02-07T13:25:34.941Z,22.25
2023-02-07T13:28:06.343Z,22.50
2023-02-07T13:30:34.679Z,19.83
2023-02-07T13:33:26.149Z,22.45
2023-02-07T13:35:56.007Z,22.05
2023-02-07T13:38:37.832Z,24.90
2023-02-07T13:41:34.010Z,21.45
2023-02-07T13:44:20.466Z,25.12
2023-02-07T13:47:03.294Z,27.25
2023-02-07T13:49:45.830Z,25.27
2023-02-07T13:52:35.633Z,25.73
2023-02-07T13:55:15.120Z,22.37
2023-02-07T13:58:02.817Z,21.45
2023-02-07T14:00:32.622Z,22.92
2023-02-07T14:03:03.525Z,27.98
2023-02-07T14:05:43.609Z,24.63
2023-02-07T14:08:16.678Z,23.83
2023-02-07T14:10:49.684Z,25.67
2023-02-07T14:13:36.288Z,25.12
2023-02-07T14:16:06.189Z,23.38
2023-02-07T14:18:37.105Z,23.92
2023-02-07T14:21:20.888Z,23.60
2023-02-07T14:24:03.362Z,23.55
2023-02-07T14:26:40.154Z,24.52
2023-02-07T14:29:22.943Z,26.48
2023-02-07T14:32:19.308Z,26.27
2023-02-07T14:35:17.233Z,22.05
2023-02-07T14:38:01.585Z,25.90
2023-02-07T14:40:32.876Z,26.37
2023-02-07T14:43:10.275Z,22.43
2023-02-07T14:45:39.957Z,28.17
2023-02-07T14:48:42.476Z,33.38
2023-02-07T14:51:47.450Z,50.80
2023-02-07T14:54:19.348Z,35.67
2023-02-07T14:56:59.293Z,29.12
2023-02-07T14:59:54.410Z,25.02
2023-02-07T15:02:30.909Z,29.20
2023-02-07T15:04:59.777Z,33.38
2023-02-07T15:07:27.192Z,34.22
2023-02-07T15:09:54.577Z,32.03
2023-02-07T15:12:27.563Z,27.37
2023-02-07T15:14:56.996Z,27.02
2023-02-07T15:17:56.686Z,27.52
2023-02-07T15:20:30.146Z,27.62
2023-02-07T15:22:59.650Z,27.75
2023-02-07T15:25:28.028Z,48.87
2023-02-07T15:28:03.151Z,38.70
2023-02-07T15:30:32.182Z,34.47
2023-02-07T15:32:59.912Z,36.25
2023-02-07T15:35:36.157Z,28.83
2023-02-07T15:38:19.811Z,29.80
2023-02-07T15:40:47.444Z,33.05
2023-02-07T15:43:33.616Z,32.60
2023-02-07T15:46:10.348Z,33.42
2023-02-07T15:48:47.177Z,34.65
2023-02-07T15:51:16.255Z,34.42
2023-02-07T15:53:44.071Z,35.05
2023-02-07T15:56:14.848Z,34.78
2023-02-07T15:58:42.279Z,40.67
2023-02-07T16:01:23.552Z,47.40
2023-02-07T16:03:52.112Z,43.80
2023-02-07T16:06:22.492Z,45.12
2023-02-07T16:08:51.754Z,52.05
2023-02-07T16:11:25.438Z,56.42
2023-02-07T16:14:03.166Z,54.75
2023-02-07T16:16:35.874Z,51.03
2023-02-07T16:22:13.544Z,46.83
2023-02-07T16:24:43.517Z,46.37
2023-02-07T16:27:17.411Z,56.05
2023-02-07T16:29:45.144Z,70.28
2023-02-07T16:32:13.687Z,79.68
2023-02-07T16:34:53.828Z,92.07
2023-02-07T16:37:28.813Z,76.57
2023-02-07T16:39:56.292Z,71.15
2023-02-07T16:42:23.909Z,65.93
2023-02-07T16:44:51.574Z,56.72
2023-02-07T16:47:19.037Z,48.58
2023-02-07T16:49:46.751Z,50.78
2023-02-07T16:52:14.448Z,53.90
2023-02-07T16:54:41.909Z,55.53
2023-02-07T16:57:09.698Z,53.20
2023-02-07T16:59:37.463Z,62.62
2023-02-07T17:02:14.203Z,63.63
2023-02-07T17:04:41.963Z,54.05
2023-02-07T17:07:11.368Z,62.28
2023-02-07T17:09:39.195Z,73.55
2023-02-07T17:12:07.451Z,84.68
2023-02-07T17:14:36.384Z,79.35
2023-02-07T17:17:03.770Z,90.10
2023-02-07T17:19:31.950Z,97.30
2023-02-07T17:21:59.355Z,87.80
2023-02-07T17:24:27.382Z,95.90
2023-02-07T17:26:55.526Z,135.00
2023-02-07T17:29:26.462Z,137.52
2023-02-07T17:31:53.854Z,99.30
2023-02-07T17:34:21.555Z,72.18
2023-02-07T17:36:49.977Z,74.40
2023-02-07T17:39:19.172Z,75.55
2023-02-07T17:41:48.316Z,75.60
2023-02-07T17:44:17.032Z,57.40
2023-02-07T17:46:44.519Z,56.42
2023-02-07T17:49:16.789Z,46.67
2023-02-07T17:51:44.446Z,38.03
2023-02-07T17:54:12.201Z,40.55
2023-02-07T17:56:39.592Z,37.72
2023-02-07T17:59:07.917Z,37.80
2023-02-07T18:01:35.644Z,37.85
2023-02-07T18:04:04.978Z,36.95
2023-02-07T18:06:32.677Z,38.92
2023-02-07T18:09:00.164Z,37.92
2023-02-07T18:11:28.703Z,37.58
2023-02-07T18:13:59.122Z,43.70
2023-02-07T18:16:27.184Z,37.67
2023-02-07T18:18:56.687Z,38.03
2023-02-07T18:21:24.590Z,44.40
2023-02-07T18:23:53.482Z,37.95
2023-02-07T18:26:22.497Z,39.13
2023-02-07T18:28:50.169Z,41.80
2023-02-07T18:31:23.139Z,48.22
2023-02-07T18:33:52.304Z,46.72
2023-02-07T18:36:21.767Z,44.50
2023-02-07T18:38:49.986Z,44.28
2023-02-07T18:41:21.957Z,47.05
2023-02-07T18:43:50.858Z,41.80
2023-02-07T18:46:20.877Z,44.20
2023-02-07T18:48:52.189Z,37.95
2023-02-07T18:51:20.236Z,45.87
2023-02-07T18:53:48.453Z,47.20
2023-02-07T18:56:22.016Z,43.60
2023-02-07T18:58:52.813Z,44.72
2023-02-07T19:01:21.029Z,48.00
2023-02-07T19:03:58.437Z,49.03
2023-02-07T19:06:30.329Z,42.70
2023-02-07T19:08:58.508Z,45.30
2023-02-07T19:11:26.861Z,41.55
2023-02-07T19:13:55.148Z,44.17
2023-02-07T19:16:24.511Z,43.50
2023-02-07T19:18:52.566Z,46.85
2023-02-07T19:21:26.933Z,44.45
2023-02-07T19:23:56.417Z,46.25
2023-02-07T19:26:24.542Z,43.08
2023-02-07T19:28:52.890Z,46.58
2023-02-07T19:31:21.460Z,46.92
2023-02-07T19:33:49.751Z,49.10
2023-02-07T19:36:18.333Z,46.95
2023-02-07T19:38:48.630Z,52.17
2023-02-07T19:41:19.223Z,50.00
2023-02-07T19:43:47.419Z,52.28
2023-02-07T19:46:15.082Z,45.40
2023-02-07T19:48:43.443Z,51.00
2023-02-07T19:51:20.076Z,50.70
2023-02-07T19:53:50.095Z,56.28
2023-02-07T19:56:19.730Z,55.38
2023-02-07T19:58:49.235Z,52.60
2023-02-07T20:01:18.038Z,44.17
2023-02-07T20:03:50.520Z,50.28
2023-02-07T20:08:47.788Z,46.53
2023-02-07T20:11:17.726Z,46.37
2023-02-07T20:13:47.130Z,48.75
2023-02-07T20:16:17.312Z,48.30
2023-02-07T20:18:44.889Z,43.33
2023-02-07T20:21:15.329Z,42.20
2023-02-07T20:23:46.588Z,46.55
2023-02-07T20:26:17.298Z,52.92
2023-02-07T20:28:46.262Z,58.75
2023-02-07T20:31:15.973Z,60.65
2023-02-07T20:33:43.874Z,58.22
2023-02-07T20:36:13.761Z,53.75
2023-02-07T20:38:41.249Z,48.72
2023-02-07T20:41:30.212Z,58.15
2023-02-07T20:44:05.046Z,48.40
2023-02-07T20:46:35.064Z,52.88
2023-02-07T20:49:16.582Z,50.97
2023-02-07T20:51:45.061Z,53.72
2023-02-07T20:54:12.820Z,53.45
2023-02-07T20:56:41.240Z,46.08
2023-02-07T20:59:09.943Z,47.25
2023-02-07T21:01:37.777Z,49.83
2023-02-07T21:04:06.159Z,48.05
2023-02-07T21:06:34.805Z,51.47
2023-02-07T21:09:05.009Z,50.70
2023-02-07T21:11:33.924Z,54.03
2023-02-07T21:14:07.095Z,53.95
2023-02-07T21:16:35.176Z,50.10
2023-02-07T21:19:03.154Z,48.72
2023-02-07T21:21:30.700Z,51.50
2023-02-07T21:23:58.571Z,52.70
2023-02-07T21:26:28.968Z,50.38
2023-02-07T21:29:00.599Z,48.55
2023-02-07T21:31:29.787Z,52.97
2023-02-07T21:33:57.664Z,47.30
2023-02-07T21:36:27.898Z,53.20
2023-02-07T21:38:59.480Z,53.72
2023-02-07T21:41:28.393Z,56.60
2023-02-07T21:43:57.230Z,58.90
2023-02-07T21:46:30.497Z,57.00
2023-02-07T21:49:01.823Z,56.10
2023-02-07T21:51:31.018Z,56.47
2023-02-07T21:54:00.004Z,52.97
2023-02-07T21:56:35.518Z,59.13
2023-02-07T21:59:06.299Z,56.53
2023-02-07T22:01:33.842Z,56.22
2023-02-07T22:04:02.547Z,62.85
2023-02-07T22:06:31.211Z,58.70
2023-02-07T22:09:04.799Z,59.22
2023-02-07T22:11:34.352Z,61.40
2023-02-07T22:14:02.422Z,63.15
2023-02-07T22:16:31.235Z,62.40
2023-02-07T22:19:00.851Z,62.78
2023-02-07T22:21:33.481Z,63.87
2023-02-07T22:24:01.916Z,72.87
2023-02-07T22:26:29.986Z,75.18
2023-02-07T22:28:58.791Z,76.75
2023-02-07T22:31:29.705Z,74.53
2023-02-07T22:34:05.433Z,75.03
2023-02-07T22:36:34.158Z,66.55
2023-02-07T22:39:02.350Z,74.03
2023-02-07T22:41:29.860Z,71.93
2023-02-07T22:43:57.882Z,64.85
2023-02-07T22:46:25.406Z,67.53
2023-02-07T22:48:53.464Z,61.25
2023-02-07T22:51:30.021Z,61.97
2023-02-07T22:54:00.353Z,58.53
2023-02-07T22:56:28.427Z,62.40
2023-02-07T22:58:56.022Z,59.85
2023-02-07T23:01:27.943Z,56.75
2023-02-07T23:03:56.161Z,62.20
2023-02-07T23:06:25.956Z,62.40
2023-02-07T23:08:54.078Z,58.60
2023-02-07T23:11:23.117Z,60.83
2023-02-07T23:13:51.642Z,57.60
2023-02-07T23:16:21.635Z,48.17
2023-02-07T23:18:51.032Z,54.60
2023-02-07T23:21:20.343Z,48.03
2023-02-07T23:23:47.946Z,45.88
2023-02-07T23:26:17.999Z,46.30
2023-02-07T23:28:45.396Z,43.55
2023-02-07T23:31:14.726Z,43.53
2023-02-07T23:33:43.089Z,39.15
2023-02-07T23:36:10.523Z,40.45
2023-02-07T23:38:38.681Z,38.28
2023-02-07T23:41:07.372Z,41.85
2023-02-07T23:43:36.220Z,39.80
2023-02-07T23:46:04.712Z,37.50
2023-02-07T23:48:36.970Z,40.00
2023-02-07T23:51:06.587Z,39.45
2023-02-07T23:53:34.796Z,35.92
2023-02-07T23:56:03.562Z,39.15
2023-02-07T23:58:31.899Z,37.58
